Airfield :
LOGIN :

Register | Disclaimer

   EN    FR    IT 

 










Legend :    VFR   Marginal VFR   IFR   Intensive IFR   Very Intensive IFR
Visi :
Ceiling :
>= 8 km
>= 3000ft
5 to 8 km
1000 to 3000 ft
1500m to 5 km
500 to 1000 ft
800 to 1500m
200 to 500 ft
< 800m
< 200 ft
Symbols :   Thunderstorms  Fog  Heavy snow  Heavy precipitations  Wind > 20 kt
SIGMETs :     Misc.  Thunderstorms  Icing  Turbulence  Mountain Waves  Volcanic Ashes







- Airport Elevation : 325 ft
- IATA code : BES
- Download approach charts


LFRB - Brest

CURRENT METAR :
  • 191830Z AUTO 05007KT CAVOK 15/10 Q1024 NOSIG

EXPIRED METARs :
  • 191800Z AUTO 05010KT CAVOK 16/10 Q1024 NOSIG
  • 191730Z AUTO 05011KT 020V090 CAVOK 17/10 Q1024 NOSIG
  • 191700Z AUTO 05011KT CAVOK 18/10 Q1024 TEMPO 07015G25KT
  • 191630Z AUTO 05017KT CAVOK 19/09 Q1024 TEMPO 07015G25KT
  • 191600Z AUTO 05016KT CAVOK 19/09 Q1024 TEMPO 07015G25KT

TAF TAF LFRB
Valid from the 19 at 18:00 until the 21 at 00:00 UTC


191700Z 1918/2024 06015KT CAVOK
BECMG 2008/2010 16008KT
ATIS : +33 2 98 32 02 71
No reported NOTAMs for that airfield.



MET'MAP, your aeronautical weather chart ! - Copyright ORBIFLY December 2007 - Disclaimer

ORBIFLY MET'MAP TEAM :

Programming & Development : Alexandra Zaïnal
Concept & Development : Baudouin d'Aumeries
Co-Development & Prog : Marc-Olivier Méhu
Technical & hardware support : Manuel Goepfert

Contact : metmap@orbifly.com




SOURCES & CREDITS :

   NOAA